Time;durP1;ratioP1;P1;durP2;ratioP2;P2;SDS_P1;SDS_P2;PMS_P1;PMS_P2;Temp;Humidity;BMP_temperature;BMP_pressure;BME280_temperature;BME280_humidity;BME280_pressure;Samples;Min_cycle;Max_cycle;Signal;HPM_P1;HPM_P2
2021/06/21 00:01:31;;;;;;;15.32;6.15;;;;;;;;;;5114724;28;20206;-85
2021/06/21 00:03:57;;;;;;;20.58;6.50;;;20.60;99.90;;;;;;5113714;28;20180;-87
2021/06/21 00:06:23;;;;;;;12.30;5.93;;;;;;;;;;5114694;28;20180;-85
2021/06/21 00:08:49;;;;;;;8.13;5.75;;;;;;;;;;5113865;28;20186;-86
2021/06/21 00:11:15;;;;;;;12.00;5.55;;;20.50;99.90;;;;;;5114309;28;20281;-86
2021/06/21 00:13:41;;;;;;;7.40;6.00;;;20.40;99.90;;;;;;5114344;28;20683;-86
2021/06/21 00:16:07;;;;;;;8.85;5.95;;;20.40;99.90;;;;;;5112510;28;20528;-86
2021/06/21 00:18:33;;;;;;;7.10;5.70;;;20.40;99.90;;;;;;5113749;28;20189;-85
2021/06/21 00:20:59;;;;;;;11.55;5.82;;;20.30;99.90;;;;;;5112665;28;20646;-85
2021/06/21 00:23:25;;;;;;;14.73;6.60;;;20.30;99.90;;;;;;5112466;28;20588;-86
2021/06/21 00:25:51;;;;;;;12.27;6.15;;;20.30;99.90;;;;;;5112785;28;20203;-86
2021/06/21 00:28:17;;;;;;;8.27;5.95;;;;;;;;;;5095187;28;20280;-86
2021/06/21 00:30:44;;;;;;;9.27;5.70;;;20.20;99.90;;;;;;5112276;28;20178;-85
2021/06/21 00:33:11;;;;;;;12.65;5.80;;;20.20;99.90;;;;;;5113697;28;20261;-86
2021/06/21 00:35:37;;;;;;;13.05;6.18;;;20.20;99.90;;;;;;5112904;28;20197;-85
2021/06/21 00:38:05;;;;;;;13.48;5.88;;;20.20;99.90;;;;;;5113489;28;20231;-86
2021/06/21 00:40:31;;;;;;;11.80;5.72;;;20.20;99.90;;;;;;5112398;28;20178;-85
2021/06/21 00:42:57;;;;;;;14.23;6.50;;;20.10;99.90;;;;;;5112736;28;20247;-85
2021/06/21 00:45:23;;;;;;;14.00;6.28;;;20.10;99.90;;;;;;5113842;28;20174;-86
2021/06/21 00:47:50;;;;;;;9.38;5.82;;;20.10;99.90;;;;;;5113511;28;20582;-85
2021/06/21 00:50:16;;;;;;;10.15;6.00;;;20.00;99.90;;;;;;5111905;28;20222;-85
2021/06/21 00:52:42;;;;;;;17.95;6.07;;;20.10;99.90;;;;;;5111840;28;20177;-85
2021/06/21 00:55:09;;;;;;;14.05;6.00;;;20.00;99.90;;;;;;5111999;28;20174;-86
2021/06/21 00:57:36;;;;;;;9.30;5.85;;;20.00;99.90;;;;;;5113233;28;20555;-86
2021/06/21 01:00:11;;;;;;;8.57;5.95;;;20.00;99.90;;;;;;5110873;28;20177;-86
2021/06/21 01:02:37;;;;;;;7.70;5.82;;;19.90;99.90;;;;;;5113586;28;20216;-86
2021/06/21 01:05:06;;;;;;;12.45;5.88;;;19.90;99.90;;;;;;5095346;28;20174;-86
2021/06/21 01:07:32;;;;;;;9.52;6.43;;;19.80;99.90;;;;;;5113102;28;20642;-85
2021/06/21 01:09:57;;;;;;;14.00;6.72;;;19.80;99.90;;;;;;5095222;28;20181;-86
2021/06/21 01:15:08;;;;;;;8.75;5.80;;;19.70;99.90;;;;;;5147861;27;20539;-85
2021/06/21 01:17:35;;;;;;;10.50;5.93;;;19.70;99.90;;;;;;5132236;28;20247;-86
2021/06/21 01:20:16;;;;;;;10.20;5.75;;;19.70;99.90;;;;;;5132472;28;20624;-86
2021/06/21 01:23:00;;;;;;;6.57;5.70;;;19.60;99.90;;;;;;5132556;28;20172;-86
2021/06/21 01:25:43;;;;;;;11.35;6.30;;;19.60;99.90;;;;;;5131579;28;20169;-86
2021/06/21 01:28:47;;;;;;;7.57;6.32;;;19.50;99.90;;;;;;5130661;28;20580;-86
2021/06/21 01:31:28;;;;;;;14.82;6.57;;;19.50;99.90;;;;;;5130564;28;20552;-86
2021/06/21 01:33:55;;;;;;;16.08;6.15;;;19.50;99.90;;;;;;5131921;28;20280;-85
2021/06/21 01:36:24;;;;;;;12.80;6.20;;;19.40;99.90;;;;;;5113192;28;20177;-86
2021/06/21 01:38:55;;;;;;;10.93;5.95;;;19.40;99.90;;;;;;5131558;28;20180;-85
2021/06/21 01:41:28;;;;;;;10.10;6.22;;;19.40;99.90;;;;;;5132004;28;20173;-86
2021/06/21 01:43:55;;;;;;;13.05;6.05;;;19.30;99.90;;;;;;5129979;28;20309;-86
2021/06/21 01:46:24;;;;;;;7.95;6.00;;;19.30;99.90;;;;;;5130181;28;20174;-86
2021/06/21 01:48:55;;;;;;;13.85;6.43;;;19.20;99.90;;;;;;5130950;28;20656;-86
2021/06/21 01:51:23;;;;;;;8.80;5.22;;;19.20;99.90;;;;;;5129724;28;20538;-86
2021/06/21 01:53:51;;;;;;;8.77;5.90;;;19.20;99.90;;;;;;5131135;28;20250;-86
2021/06/21 01:56:23;;;;;;;8.13;5.63;;;19.20;99.90;;;;;;5113269;28;20177;-85
2021/06/21 01:58:52;;;;;;;11.63;5.25;;;19.20;99.90;;;;;;5131027;28;20169;-86
2021/06/21 02:01:19;;;;;;;17.08;5.60;;;19.10;99.90;;;;;;5130729;28;20170;-86
2021/06/21 02:03:50;;;;;;;10.10;5.15;;;19.10;99.90;;;;;;5131072;28;20234;-86
2021/06/21 02:06:18;;;;;;;11.55;5.38;;;19.10;99.90;;;;;;5129520;28;20331;-86
2021/06/21 02:08:46;;;;;;;13.43;5.53;;;19.10;99.90;;;;;;5131610;28;20184;-85
2021/06/21 02:11:13;;;;;;;8.27;5.28;;;19.10;99.90;;;;;;5130856;28;20649;-86
2021/06/21 02:13:39;;;;;;;9.10;5.50;;;19.00;99.90;;;;;;5131019;28;20237;-86
2021/06/21 02:16:06;;;;;;;9.93;4.85;;;19.00;99.90;;;;;;5112841;28;20184;-86
2021/06/21 02:18:33;;;;;;;7.57;4.95;;;19.00;99.90;;;;;;5131121;28;20174;-86
2021/06/21 02:20:59;;;;;;;14.30;4.93;;;19.00;99.90;;;;;;5130210;28;20264;-86
2021/06/21 02:23:25;;;;;;;12.63;4.88;;;;;;;;;;5129632;28;20277;-86
2021/06/21 02:25:54;;;;;;;6.90;5.35;;;18.90;99.90;;;;;;5120287;27;20177;-85
2021/06/21 02:28:21;;;;;;;13.40;5.55;;;18.90;99.90;;;;;;5116978;28;20166;-86
2021/06/21 02:30:48;;;;;;;11.15;5.60;;;18.90;99.90;;;;;;5116666;28;20261;-85
2021/06/21 02:33:15;;;;;;;9.95;4.93;;;18.90;99.90;;;;;;5117071;28;20198;-86
2021/06/21 02:35:42;;;;;;;9.63;4.70;;;18.90;99.90;;;;;;5116928;28;20182;-85
2021/06/21 02:38:08;;;;;;;7.32;5.22;;;18.80;99.90;;;;;;5116631;28;20626;-85
2021/06/21 02:40:34;;;;;;;8.52;4.90;;;;;;;;;;5115418;28;20264;-86
2021/06/21 02:43:00;;;;;;;12.90;5.43;;;18.80;99.90;;;;;;5116636;28;20545;-86
2021/06/21 02:45:25;;;;;;;9.05;5.40;;;18.80;99.90;;;;;;5115478;28;20178;-86
2021/06/21 02:47:51;;;;;;;12.30;5.35;;;18.80;99.90;;;;;;5115790;28;20174;-86
2021/06/21 02:50:17;;;;;;;12.70;5.32;;;18.80;99.90;;;;;;5116425;28;20178;-86
2021/06/21 02:53:08;;;;;;;12.82;5.40;;;18.80;99.90;;;;;;5115447;28;20170;-86
2021/06/21 02:55:41;;;;;;;7.28;4.82;;;18.70;99.90;;;;;;5116318;28;20174;-86
2021/06/21 02:58:31;;;;;;;16.63;5.93;;;18.80;99.90;;;;;;5116649;28;20567;-86
2021/06/21 03:01:04;;;;;;;11.30;5.00;;;18.80;99.90;;;;;;5116061;28;20534;-86
2021/06/21 03:03:39;;;;;;;12.13;5.40;;;18.80;99.90;;;;;;5115991;28;20170;-86
2021/06/21 03:06:07;;;;;;;12.00;6.32;;;18.80;99.90;;;;;;5115092;28;20186;-85
2021/06/21 03:08:33;;;;;;;9.55;4.30;;;18.80;99.90;;;;;;5116026;28;20263;-85
2021/06/21 03:11:01;;;;;;;9.68;4.78;;;18.80;99.90;;;;;;5116201;28;20177;-85
2021/06/21 03:13:28;;;;;;;16.92;4.72;;;18.90;99.90;;;;;;5115806;28;20264;-86
2021/06/21 03:15:56;;;;;;;12.45;4.85;;;18.90;99.90;;;;;;5116102;28;20265;-86
2021/06/21 03:18:23;;;;;;;8.00;5.05;;;18.90;99.90;;;;;;5098059;28;20174;-87
2021/06/21 03:20:53;;;;;;;7.75;4.20;;;18.90;99.90;;;;;;5115985;28;20166;-86
2021/06/21 03:23:24;;;;;;;7.55;4.25;;;19.00;99.90;;;;;;5116191;28;20166;-86
2021/06/21 03:25:51;;;;;;;13.73;5.35;;;19.00;99.90;;;;;;5114878;28;20519;-87
2021/06/21 03:28:17;;;;;;;15.65;5.07;;;19.00;99.90;;;;;;5116091;28;20227;-85
2021/06/21 03:30:47;;;;;;;14.95;5.28;;;19.10;99.90;;;;;;5115668;28;20703;-86
2021/06/21 03:33:13;;;;;;;10.32;4.63;;;19.10;99.90;;;;;;5115852;28;20202;-86
2021/06/21 03:35:39;;;;;;;8.70;4.10;;;19.10;99.90;;;;;;5114643;28;20265;-86
2021/06/21 03:38:09;;;;;;;9.50;4.47;;;19.20;99.90;;;;;;5114956;28;20185;-86
2021/06/21 03:40:35;;;;;;;10.75;4.30;;;19.20;99.90;;;;;;5113766;28;20189;-86
2021/06/21 03:43:01;;;;;;;12.88;4.50;;;19.20;99.90;;;;;;5114462;28;20178;-86
2021/06/21 03:45:26;;;;;;;12.10;4.40;;;19.30;99.90;;;;;;5114405;28;20202;-87
2021/06/21 03:47:52;;;;;;;8.75;5.05;;;;;;;;;;5114745;28;20189;-86
2021/06/21 03:50:18;;;;;;;10.25;4.78;;;19.40;99.90;;;;;;5115791;28;20178;-85
2021/06/21 03:52:44;;;;;;;15.80;4.43;;;19.50;99.90;;;;;;5114969;28;20181;-86
2021/06/21 03:55:10;;;;;;;8.02;4.65;;;19.50;99.90;;;;;;5114010;28;20174;-86
2021/06/21 03:57:45;;;;;;;14.18;4.88;;;19.50;99.90;;;;;;5115146;28;20213;-86
2021/06/21 04:00:18;;;;;;;8.98;4.50;;;19.60;99.90;;;;;;5115551;28;20538;-86
2021/06/21 04:02:44;;;;;;;6.53;4.90;;;19.70;99.90;;;;;;5115132;28;20227;-87
2021/06/21 04:05:11;;;;;;;8.52;3.95;;;19.80;99.90;;;;;;5115269;28;20590;-87
2021/06/21 04:07:37;;;;;;;10.15;4.03;;;19.90;99.90;;;;;;5115042;28;20215;-87
2021/06/21 04:10:04;;;;;;;20.45;4.82;;;20.00;99.90;;;;;;5113722;28;20185;-88
2021/06/21 04:12:31;;;;;;;20.00;4.35;;;20.00;99.90;;;;;;5114826;28;20290;-87
2021/06/21 04:14:57;;;;;;;12.35;4.25;;;20.10;99.90;;;;;;5115244;28;20224;-87
2021/06/21 04:17:23;;;;;;;8.43;4.30;;;20.10;99.90;;;;;;5114924;28;20199;-87
2021/06/21 04:19:50;;;;;;;16.95;5.10;;;20.20;99.90;;;;;;5114980;28;20264;-88
2021/06/21 04:22:16;;;;;;;16.38;4.72;;;20.40;99.90;;;;;;5096732;28;20192;-87
2021/06/21 04:24:41;;;;;;;8.35;4.68;;;20.50;99.90;;;;;;5113248;28;20173;-87
2021/06/21 04:27:07;;;;;;;11.95;4.50;;;20.50;99.90;;;;;;5113587;28;20212;-86
2021/06/21 04:29:33;;;;;;;20.20;5.20;;;20.60;99.90;;;;;;5114472;28;20184;-85
2021/06/21 04:31:59;;;;;;;19.25;5.15;;;20.60;99.90;;;;;;5096441;28;20205;-85
2021/06/21 04:34:25;;;;;;;18.20;4.50;;;20.70;99.90;;;;;;5114728;28;20206;-85
2021/06/21 04:36:50;;;;;;;10.05;4.40;;;20.80;99.90;;;;;;5112983;28;20519;-85
2021/06/21 04:39:16;;;;;;;15.55;4.75;;;;;;;;;;5113473;28;20247;-85
2021/06/21 04:41:42;;;;;;;14.98;4.90;;;21.00;99.90;;;;;;5114331;28;20203;-85
2021/06/21 04:44:08;;;;;;;22.98;4.63;;;21.10;99.90;;;;;;5113961;28;20182;-85
2021/06/21 04:46:35;;;;;;;18.88;4.90;;;21.10;99.90;;;;;;5114474;28;20219;-85
2021/06/21 04:49:01;;;;;;;19.15;4.97;;;21.20;99.90;;;;;;5112822;28;20174;-86
2021/06/21 04:51:28;;;;;;;23.10;4.10;;;21.30;99.90;;;;;;5114584;28;20174;-85
2021/06/21 04:53:53;;;;;;;12.48;4.07;;;21.40;99.90;;;;;;5112715;28;20214;-86
2021/06/21 04:56:19;;;;;;;26.10;5.10;;;21.50;99.90;;;;;;5114087;28;20246;-86
2021/06/21 04:58:45;;;;;;;16.80;5.15;;;21.50;99.90;;;;;;5113385;28;20186;-86
2021/06/21 05:01:10;;;;;;;17.23;4.80;;;21.60;99.90;;;;;;5115137;28;20178;-87
2021/06/21 05:03:37;;;;;;;18.40;4.85;;;;;;;;;;5114376;28;20544;-87
2021/06/21 05:06:05;;;;;;;12.43;3.90;;;21.80;99.90;;;;;;5131910;28;20225;-84
2021/06/21 05:08:31;;;;;;;15.75;4.28;;;21.80;99.90;;;;;;5135464;28;20181;-86
2021/06/21 05:10:56;;;;;;;16.15;5.28;;;21.90;99.90;;;;;;5136161;28;20200;-85
2021/06/21 05:13:22;;;;;;;18.48;4.97;;;22.00;99.90;;;;;;5105468;28;20237;-87
2021/06/21 05:15:48;;;;;;;18.13;4.82;;;22.10;99.90;;;;;;5093045;28;20175;-85
2021/06/21 05:18:13;;;;;;;24.98;4.60;;;22.20;99.90;;;;;;5092570;28;20179;-84
2021/06/21 05:20:40;;;;;;;13.02;4.80;;;22.30;99.90;;;;;;5093390;28;20220;-86
2021/06/21 05:23:06;;;;;;;10.15;3.88;;;22.40;99.90;;;;;;5091954;28;20178;-85
2021/06/21 05:25:33;;;;;;;18.52;4.35;;;22.50;99.90;;;;;;5100516;28;20193;-87
2021/06/21 05:28:03;;;;;;;18.00;3.80;;;22.60;99.90;;;;;;5111482;28;21206;-86
2021/06/21 05:30:29;;;;;;;31.77;5.28;;;22.70;99.90;;;;;;5110868;28;20257;-86
2021/06/21 05:32:54;;;;;;;25.42;4.75;;;22.90;99.90;;;;;;5112731;28;20256;-86
2021/06/21 05:35:21;;;;;;;27.48;4.72;;;22.90;99.90;;;;;;5112212;28;20178;-85
2021/06/21 05:37:47;;;;;;;20.52;3.70;;;23.00;99.90;;;;;;5113293;28;20173;-85
2021/06/21 05:40:15;;;;;;;12.55;3.95;;;23.10;99.90;;;;;;5113298;28;20205;-86
2021/06/21 05:42:40;;;;;;;20.85;4.32;;;23.30;99.90;;;;;;5112614;28;20174;-86
2021/06/21 05:45:08;;;;;;;49.13;8.48;;;23.40;99.90;;;;;;5112786;28;20205;-86
2021/06/21 05:47:33;;;;;;;46.63;7.90;;;23.30;99.90;;;;;;5094995;28;20535;-85
2021/06/21 05:49:59;;;;;;;26.25;5.07;;;23.40;99.90;;;;;;5111649;28;20184;-87
2021/06/21 05:52:25;;;;;;;20.67;4.15;;;;;;;;;;5111826;28;20330;-85
2021/06/21 05:54:50;;;;;;;14.35;3.45;;;23.60;99.90;;;;;;5111663;28;20312;-85
2021/06/21 05:57:16;;;;;;;16.15;4.70;;;23.70;99.90;;;;;;5112007;28;20270;-85
2021/06/21 05:59:42;;;;;;;16.98;3.88;;;23.80;99.90;;;;;;5112115;28;20219;-85
2021/06/21 06:02:08;;;;;;;17.40;5.00;;;;;;;;;;5116689;28;20170;-85
2021/06/21 06:04:35;;;;;;;20.75;4.20;;;23.90;99.90;;;;;;5116232;28;20185;-85
2021/06/21 06:07:01;;;;;;;18.13;4.70;;;24.00;99.90;;;;;;5116525;28;20264;-85
2021/06/21 06:09:27;;;;;;;16.50;3.92;;;24.10;99.90;;;;;;5115316;28;20606;-85
2021/06/21 06:11:52;;;;;;;19.52;4.90;;;24.20;99.90;;;;;;5098504;28;20639;-86
2021/06/21 06:14:18;;;;;;;27.55;4.97;;;24.30;99.90;;;;;;5116313;28;20586;-87
2021/06/21 06:16:44;;;;;;;17.08;4.20;;;24.30;99.90;;;;;;5115329;28;20177;-86
2021/06/21 06:19:10;;;;;;;20.65;4.38;;;24.40;99.90;;;;;;5116623;28;20186;-86
2021/06/21 06:21:35;;;;;;;20.23;4.32;;;24.40;99.90;;;;;;5115278;28;20182;-86
2021/06/21 06:24:01;;;;;;;16.23;3.97;;;24.50;99.90;;;;;;5114650;28;20287;-86
2021/06/21 06:26:27;;;;;;;21.75;4.65;;;24.50;99.90;;;;;;5115257;28;20222;-86
2021/06/21 06:28:54;;;;;;;7.50;3.70;;;24.50;99.90;;;;;;5115004;28;20205;-85
2021/06/21 06:31:20;;;;;;;24.92;4.30;;;24.60;99.90;;;;;;5116914;28;20166;-85
2021/06/21 06:33:45;;;;;;;16.35;4.60;;;24.70;99.90;;;;;;5115947;28;20221;-86
2021/06/21 06:36:11;;;;;;;18.52;3.97;;;24.70;99.90;;;;;;5115288;28;20535;-85
2021/06/21 06:38:37;;;;;;;11.20;4.20;;;24.80;99.90;;;;;;5114596;28;20177;-86
2021/06/21 06:41:05;;;;;;;19.35;5.63;;;24.80;99.90;;;;;;5114777;28;20672;-85
2021/06/21 06:43:31;;;;;;;21.50;3.92;;;24.80;99.90;;;;;;5116210;28;20220;-85
2021/06/21 06:45:57;;;;;;;21.83;4.07;;;24.90;99.90;;;;;;5113992;28;20174;-86
2021/06/21 06:48:23;;;;;;;12.43;3.78;;;24.90;99.90;;;;;;5114411;28;20193;-85
2021/06/21 06:50:48;;;;;;;15.73;4.45;;;25.00;99.90;;;;;;5116663;28;20172;-86
2021/06/21 06:53:24;;;;;;;20.77;3.55;;;;;;;;;;5115081;28;20213;-86
2021/06/21 06:58:34;;;;;;;9.45;3.65;;;25.20;99.90;;;;;;5116409;28;20213;-87
2021/06/21 07:01:01;;;;;;;16.75;4.22;;;25.30;99.90;;;;;;5114499;28;20201;-84
2021/06/21 07:03:27;;;;;;;13.65;3.72;;;25.30;99.90;;;;;;5097873;28;20185;-85
2021/06/21 07:05:53;;;;;;;20.13;3.97;;;25.50;99.90;;;;;;5115969;28;20547;-85
2021/06/21 07:08:18;;;;;;;13.88;3.63;;;25.50;99.90;;;;;;5115385;28;20182;-85
2021/06/21 07:10:44;;;;;;;13.57;3.22;;;25.50;99.90;;;;;;5097980;28;20630;-86
2021/06/21 07:13:10;;;;;;;19.60;3.63;;;;;;;;;;5114340;28;20763;-86
2021/06/21 07:15:35;;;;;;;20.88;3.65;;;25.70;99.90;;;;;;5116627;28;20271;-85
2021/06/21 07:18:01;;;;;;;14.43;3.40;;;25.80;99.90;;;;;;5114661;28;20295;-85
2021/06/21 07:20:27;;;;;;;15.73;3.67;;;25.80;99.90;;;;;;5114845;28;20303;-86
2021/06/21 07:22:53;;;;;;;16.42;4.15;;;26.00;99.90;;;;;;5114268;28;20186;-86
2021/06/21 07:25:18;;;;;;;14.70;3.28;;;26.00;99.90;;;;;;5114496;28;20578;-87
2021/06/21 07:27:44;;;;;;;20.60;3.33;;;26.00;99.90;;;;;;5114739;28;20253;-86
2021/06/21 07:30:10;;;;;;;15.68;3.20;;;26.10;99.90;;;;;;5114192;28;20174;-86
2021/06/21 07:32:36;;;;;;;14.35;3.22;;;26.20;99.90;;;;;;5116819;28;20173;-85
2021/06/21 07:35:02;;;;;;;11.90;2.88;;;26.20;99.90;;;;;;5114330;28;20247;-86
2021/06/21 07:37:28;;;;;;;12.00;2.95;;;26.30;99.90;;;;;;5115560;28;20217;-86
2021/06/21 07:39:54;;;;;;;9.55;3.20;;;26.40;99.90;;;;;;5113732;28;20201;-86
2021/06/21 07:42:19;;;;;;;13.77;2.90;;;26.40;99.90;;;;;;5114975;28;20174;-86
2021/06/21 07:44:45;;;;;;;11.25;3.15;;;26.40;99.90;;;;;;5114250;28;20205;-86
2021/06/21 07:47:11;;;;;;;17.15;5.60;;;26.40;99.90;;;;;;5115171;28;20658;-86
2021/06/21 07:49:36;;;;;;;16.65;2.80;;;26.50;99.90;;;;;;5113996;28;20192;-85
2021/06/21 07:52:02;;;;;;;10.75;2.72;;;26.50;99.90;;;;;;5115304;28;20181;-86
2021/06/21 07:54:28;;;;;;;13.63;2.60;;;26.60;99.90;;;;;;5114288;28;20218;-85
2021/06/21 07:56:53;;;;;;;8.73;2.38;;;26.60;99.90;;;;;;5114123;28;20185;-85
2021/06/21 07:59:19;;;;;;;7.38;2.50;;;26.60;99.90;;;;;;5128892;28;20178;-87
2021/06/21 08:01:45;;;;;;;6.90;2.58;;;26.70;99.90;;;;;;5125378;28;20307;-86
2021/06/21 08:04:10;;;;;;;14.18;2.78;;;26.80;99.90;;;;;;5114874;28;20178;-86
2021/06/21 08:06:37;;;;;;;8.27;2.95;;;27.00;99.90;;;;;;5114238;28;20618;-87
2021/06/21 08:09:03;;;;;;;10.88;2.45;;;27.00;99.90;;;;;;5098584;28;20629;-87
2021/06/21 08:11:29;;;;;;;9.35;2.40;;;;;;;;;;5115507;28;20173;-88
2021/06/21 08:13:56;;;;;;;13.95;2.65;;;27.00;99.90;;;;;;5114269;28;20233;-87
2021/06/21 08:16:21;;;;;;;8.55;2.28;;;27.00;99.90;;;;;;5114403;28;20674;-86
2021/06/21 08:18:47;;;;;;;6.85;1.95;;;27.10;99.90;;;;;;5113498;28;20174;-86
2021/06/21 08:21:13;;;;;;;5.50;2.05;;;27.20;99.90;;;;;;5114735;28;20269;-84
2021/06/21 08:23:39;;;;;;;7.97;2.78;;;;;;;;;;5113603;28;20653;-87
2021/06/21 08:26:04;;;;;;;7.63;1.70;;;27.20;99.90;;;;;;5095113;28;20185;-86
2021/06/21 08:28:30;;;;;;;23.20;2.17;;;27.20;99.90;;;;;;5096731;28;20182;-87
2021/06/21 08:30:57;;;;;;;11.68;1.70;;;27.50;99.90;;;;;;5115431;28;20182;-88
2021/06/21 08:33:23;;;;;;;9.15;1.52;;;;;;;;;;5113754;28;20217;-85
2021/06/21 08:35:49;;;;;;;6.47;2.50;;;27.60;99.90;;;;;;5112037;28;20189;-85
2021/06/21 08:38:15;;;;;;;8.27;1.73;;;27.70;99.90;;;;;;5113411;28;20181;-85
2021/06/21 08:40:40;;;;;;;3.88;2.08;;;27.80;99.90;;;;;;5115660;28;20177;-85
2021/06/21 08:43:07;;;;;;;7.03;1.67;;;27.80;99.90;;;;;;5112737;28;20591;-84
2021/06/21 08:45:35;;;;;;;10.68;1.67;;;27.90;99.90;;;;;;5115940;28;20177;-83
2021/06/21 08:48:05;;;;;;;7.85;1.63;;;27.90;99.90;;;;;;5114648;28;20627;-85
2021/06/21 08:50:31;;;;;;;4.00;1.70;;;27.90;99.90;;;;;;5113687;28;20234;-85
2021/06/21 08:52:59;;;;;;;7.72;1.80;;;27.80;99.90;;;;;;5117807;28;20178;-86
2021/06/21 08:55:25;;;;;;;8.30;2.15;;;27.90;99.90;;;;;;5097789;28;20186;-85
2021/06/21 08:57:52;;;;;;;5.93;1.80;;;28.00;99.90;;;;;;5118814;28;20193;-84
2021/06/21 09:00:26;;;;;;;6.18;2.25;;;28.00;99.90;;;;;;5101066;28;20573;-85
2021/06/21 09:02:52;;;;;;;5.22;1.90;;;28.10;99.90;;;;;;5122694;28;20174;-85
2021/06/21 09:05:18;;;;;;;7.50;1.52;;;28.10;99.90;;;;;;5118374;28;20174;-86
2021/06/21 09:07:46;;;;;;;3.53;2.13;;;28.20;99.90;;;;;;5116041;28;20178;-86
2021/06/21 09:10:24;;;;;;;5.45;1.83;;;28.20;99.90;;;;;;5114578;28;20166;-86
2021/06/21 09:13:08;;;;;;;4.20;1.65;;;28.40;99.90;;;;;;5116960;28;20165;-86
2021/06/21 09:15:54;;;;;;;8.68;1.88;;;28.40;99.90;;;;;;5114775;28;20272;-85
2021/06/21 09:18:40;;;;;;;5.55;1.58;;;28.50;99.90;;;;;;5113892;28;20210;-86
2021/06/21 09:21:28;;;;;;;4.95;1.50;;;28.60;99.80;;;;;;5114192;28;20761;-86
2021/06/21 09:23:59;;;;;;;5.45;1.30;;;28.70;99.90;;;;;;5116481;28;20162;-86
2021/06/21 09:26:28;;;;;;;7.05;1.50;;;28.60;99.20;;;;;;5112739;28;20170;-86
2021/06/21 09:28:55;;;;;;;7.85;1.60;;;28.60;99.60;;;;;;5113701;28;20197;-84
2021/06/21 09:31:22;;;;;;;2.28;1.60;;;28.70;99.20;;;;;;5112024;28;20532;-86
2021/06/21 09:33:48;;;;;;;4.20;1.80;;;28.90;97.90;;;;;;5113303;28;20202;-86
2021/06/21 09:36:33;;;;;;;2.33;1.60;;;29.00;97.30;;;;;;5116513;28;20178;-86
2021/06/21 09:39:22;;;;;;;7.57;1.25;;;29.10;96.40;;;;;;5116651;28;20238;-87
2021/06/21 09:42:22;;;;;;;3.88;1.40;;;29.20;97.10;;;;;;5115943;28;20635;-86
2021/06/21 09:44:53;;;;;;;6.78;1.40;;;29.20;96.10;;;;;;5115938;28;20174;-86
2021/06/21 09:47:31;;;;;;;11.20;1.52;;;29.30;97.50;;;;;;5116704;28;20170;-85
2021/06/21 09:50:02;;;;;;;6.18;1.30;;;29.40;96.80;;;;;;5116495;28;20578;-85
2021/06/21 09:52:35;;;;;;;4.18;1.63;;;29.50;96.60;;;;;;5116188;28;20657;-86
2021/06/21 09:55:09;;;;;;;6.18;1.60;;;29.70;95.80;;;;;;5115875;28;20282;-83
2021/06/21 09:57:36;;;;;;;4.53;1.40;;;29.70;96.70;;;;;;5115023;28;20230;-84
2021/06/21 10:00:08;;;;;;;5.05;1.40;;;29.70;96.40;;;;;;5097855;28;20174;-85
2021/06/21 10:02:34;;;;;;;4.30;1.40;;;29.80;96.70;;;;;;5116230;28;20170;-85
2021/06/21 10:05:00;;;;;;;14.27;1.52;;;29.90;96.10;;;;;;5114954;28;20230;-85
2021/06/21 10:07:31;;;;;;;7.20;1.40;;;30.10;94.80;;;;;;5094963;28;20182;-85
2021/06/21 10:10:05;;;;;;;13.90;2.00;;;30.10;96.00;;;;;;5114781;28;20730;-85
2021/06/21 10:12:32;;;;;;;2.63;1.60;;;30.40;93.60;;;;;;5112935;28;20166;-85
2021/06/21 10:14:58;;;;;;;12.70;2.13;;;30.60;94.00;;;;;;5099313;28;20307;-84
2021/06/21 10:17:25;;;;;;;6.60;1.42;;;30.60;94.80;;;;;;5115673;28;20177;-84
2021/06/21 10:19:51;;;;;;;3.92;1.55;;;30.50;93.20;;;;;;5117204;28;20226;-84
2021/06/21 10:22:20;;;;;;;11.32;1.50;;;30.40;92.60;;;;;;5097510;28;20180;-84
2021/06/21 10:24:51;;;;;;;9.55;1.73;;;30.50;92.70;;;;;;5098412;28;20196;-85
2021/06/21 10:27:22;;;;;;;5.15;1.35;;;30.50;92.90;;;;;;5114578;28;20178;-85
2021/06/21 10:29:49;;;;;;;7.80;1.52;;;30.50;92.90;;;;;;5112900;28;20185;-85
2021/06/21 10:32:16;;;;;;;7.25;1.60;;;30.50;92.70;;;;;;5097904;28;20174;-86
2021/06/21 10:34:41;;;;;;;3.17;1.30;;;30.50;93.00;;;;;;5113876;28;20198;-84
2021/06/21 10:37:25;;;;;;;4.53;1.38;;;30.60;91.60;;;;;;5115265;28;20184;-87
2021/06/21 10:39:59;;;;;;;3.53;1.40;;;30.70;91.00;;;;;;5099120;28;20189;-86
2021/06/21 10:42:27;;;;;;;9.13;1.40;;;30.60;89.40;;;;;;5116275;28;20254;-84
2021/06/21 10:44:55;;;;;;;4.30;1.30;;;30.80;90.60;;;;;;5116555;28;20182;-84
2021/06/21 10:47:29;;;;;;;6.65;1.85;;;31.00;87.20;;;;;;5115246;28;20172;-84
2021/06/21 10:50:04;;;;;;;4.57;1.20;;;31.00;88.10;;;;;;5116381;28;20173;-85
2021/06/21 10:52:50;;;;;;;5.60;1.52;;;31.10;90.00;;;;;;5114222;28;20188;-84
2021/06/21 10:57:49;;;;;;;4.22;1.67;;;31.10;84.90;;;;;;5114359;28;20682;-85
2021/06/21 11:00:16;;;;;;;3.85;1.48;;;31.10;85.50;;;;;;5111753;28;20170;-84
2021/06/21 11:02:42;;;;;;;9.80;1.33;;;;;;;;;;5095730;28;20620;-87
2021/06/21 11:05:09;;;;;;;8.07;1.83;;;31.20;84.00;;;;;;5112386;28;20212;-86
2021/06/21 11:07:37;;;;;;;4.18;1.40;;;31.30;85.10;;;;;;5109698;28;20230;-85
2021/06/21 11:10:06;;;;;;;1.65;1.15;;;31.20;85.70;;;;;;5098989;28;20177;-86
2021/06/21 11:12:33;;;;;;;3.47;1.00;;;;;;;;;;5128901;28;20181;-86
2021/06/21 11:17:33;;;;;;;4.45;1.40;;;31.20;83.20;;;;;;5121028;28;20624;-85
2021/06/21 11:20:24;;;;;;;8.38;1.60;;;31.10;83.00;;;;;;5111725;28;20269;-85
2021/06/21 11:22:50;;;;;;;7.45;1.27;;;;;;;;;;5110091;28;20170;-86
2021/06/21 11:25:20;;;;;;;4.13;1.35;;;31.20;79.20;;;;;;5094759;28;20297;-85
2021/06/21 11:27:46;;;;;;;6.70;1.40;;;;;;;;;;5111958;28;20579;-85
2021/06/21 11:30:26;;;;;;;7.95;1.80;;;31.10;78.60;;;;;;5111476;28;20706;-85
2021/06/21 11:32:58;;;;;;;8.60;2.58;;;30.90;79.40;;;;;;5110870;28;20197;-85
2021/06/21 11:35:53;;;;;;;5.85;1.60;;;30.90;79.20;;;;;;5112289;28;20186;-84
2021/06/21 11:38:27;;;;;;;3.53;1.20;;;31.00;78.40;;;;;;5110992;28;20199;-84
2021/06/21 11:41:26;;;;;;;2.00;1.42;;;30.80;78.60;;;;;;5113636;28;20177;-84
2021/06/21 11:44:01;;;;;;;8.02;1.77;;;30.80;78.00;;;;;;5111139;28;20197;-85
2021/06/21 11:46:42;;;;;;;5.35;1.25;;;30.90;80.10;;;;;;5111617;28;20544;-84
2021/06/21 11:49:20;;;;;;;5.45;1.50;;;31.00;78.20;;;;;;5121096;27;20166;-85
2021/06/21 11:51:52;;;;;;;9.15;3.28;;;31.00;78.80;;;;;;5110776;28;20238;-86
2021/06/21 11:54:18;;;;;;;6.20;1.80;;;31.00;77.70;;;;;;5109831;28;20291;-86
2021/06/21 11:56:50;;;;;;;2.88;1.80;;;31.00;80.60;;;;;;5112198;28;20182;-85
2021/06/21 11:59:46;;;;;;;2.95;1.45;;;30.70;80.80;;;;;;5111284;28;20260;-85
2021/06/21 12:02:25;;;;;;;4.10;1.58;;;30.70;82.10;;;;;;5109174;28;20232;-85
2021/06/21 12:04:56;;;;;;;7.82;1.90;;;30.30;79.80;;;;;;5112811;28;20182;-85
2021/06/21 12:07:42;;;;;;;4.18;1.67;;;30.20;79.40;;;;;;5113702;28;20162;-84
2021/06/21 12:10:10;;;;;;;3.22;1.67;;;30.40;79.80;;;;;;5112449;28;20257;-86
2021/06/21 12:12:37;;;;;;;4.35;1.70;;;30.70;80.40;;;;;;5112282;28;20265;-86
2021/06/21 12:15:05;;;;;;;3.30;1.55;;;30.70;79.50;;;;;;5111113;28;20251;-87
2021/06/21 12:17:31;;;;;;;6.10;1.73;;;30.70;79.70;;;;;;5112104;28;20638;-86
2021/06/21 12:20:15;;;;;;;8.15;1.70;;;30.70;81.90;;;;;;5091841;28;20235;-86
2021/06/21 12:22:51;;;;;;;5.95;1.92;;;31.00;81.10;;;;;;5110443;28;20166;-84
2021/06/21 12:25:33;;;;;;;2.88;1.42;;;31.00;81.80;;;;;;5093948;28;20185;-86
2021/06/21 12:28:18;;;;;;;2.80;1.55;;;30.90;80.00;;;;;;5110381;28;20211;-86
2021/06/21 12:30:55;;;;;;;3.40;1.45;;;30.80;80.90;;;;;;5110623;28;20174;-86
2021/06/21 12:33:29;;;;;;;7.10;1.85;;;30.80;81.10;;;;;;5111714;28;20208;-86
2021/06/21 12:36:07;;;;;;;6.38;1.42;;;30.80;80.20;;;;;;5113065;28;20177;-86
2021/06/21 12:38:34;;;;;;;2.58;1.42;;;31.00;79.60;;;;;;5111016;28;20174;-86
2021/06/21 12:41:19;;;;;;;3.08;1.40;;;30.80;78.00;;;;;;5092227;28;20206;-85
2021/06/21 12:43:55;;;;;;;3.78;1.35;;;30.80;78.60;;;;;;5112647;28;20700;-85
2021/06/21 12:46:25;;;;;;;4.57;1.65;;;31.00;78.80;;;;;;5111405;28;20191;-84
2021/06/21 12:48:53;;;;;;;6.22;1.55;;;31.10;78.50;;;;;;5111068;28;20768;-84
2021/06/21 12:51:19;;;;;;;5.32;1.50;;;;;;;;;;5112008;28;20238;-85
2021/06/21 12:53:48;;;;;;;6.40;1.52;;;31.30;75.90;;;;;;5110761;28;20212;-84
2021/06/21 12:56:35;;;;;;;5.50;1.33;;;31.00;76.30;;;;;;5112646;28;20178;-86
2021/06/21 12:59:02;;;;;;;5.55;1.70;;;30.80;76.10;;;;;;5108729;28;20200;-84
2021/06/21 13:01:35;;;;;;;10.07;1.45;;;30.70;72.70;;;;;;5093635;28;20185;-86
2021/06/21 13:04:14;;;;;;;5.53;1.60;;;30.70;73.90;;;;;;5111572;28;20189;-85
2021/06/21 13:06:42;;;;;;;2.10;1.20;;;30.60;71.80;;;;;;5108861;28;20189;-86
2021/06/21 13:09:10;;;;;;;3.75;1.30;;;30.60;72.60;;;;;;5111220;28;20170;-85